sensor_id;sensor_type;location;lat;lon;timestamp;pressure;altitude;pressure_sealevel;temperature;humidity
62548;BME280;48602;45.192;5.722;2023-04-06T00:00:13;99477.53;;;8.10;47.43
62548;BME280;48602;45.192;5.722;2023-04-06T00:02:39;99483.72;;;8.07;47.82
62548;BME280;48602;45.192;5.722;2023-04-06T00:05:05;99487.25;;;8.06;47.76
62548;BME280;48602;45.192;5.722;2023-04-06T00:07:31;99478.53;;;8.04;47.95
62548;BME280;48602;45.192;5.722;2023-04-06T00:09:58;99486.41;;;8.04;48.11
62548;BME280;48602;45.192;5.722;2023-04-06T00:12:24;99483.03;;;8.01;48.55
62548;BME280;48602;45.192;5.722;2023-04-06T00:14:49;99483.91;;;8.00;48.32
62548;BME280;48602;45.192;5.722;2023-04-06T00:17:15;99484.88;;;7.96;48.56
62548;BME280;48602;45.192;5.722;2023-04-06T00:19:40;99481.44;;;7.94;48.42
62548;BME280;48602;45.192;5.722;2023-04-06T00:22:06;99482.31;;;7.93;48.54
62548;BME280;48602;45.192;5.722;2023-04-06T00:24:31;99480.66;;;7.89;48.56
62548;BME280;48602;45.192;5.722;2023-04-06T00:26:57;99481.53;;;7.89;48.77
62548;BME280;48602;45.192;5.722;2023-04-06T00:29:22;99482.50;;;7.87;48.51
62548;BME280;48602;45.192;5.722;2023-04-06T00:31:48;99486.00;;;7.86;48.99
62548;BME280;48602;45.192;5.722;2023-04-06T00:34:13;99481.69;;;7.83;49.35
62548;BME280;48602;45.192;5.722;2023-04-06T00:36:41;99479.97;;;7.82;49.34
62548;BME280;48602;45.192;5.722;2023-04-06T00:39:06;99478.31;;;7.78;49.36
62548;BME280;48602;45.192;5.722;2023-04-06T00:41:31;99480.09;;;7.76;49.52
62548;BME280;48602;45.192;5.722;2023-04-06T00:43:57;99477.53;;;7.73;49.62
62548;BME280;48602;45.192;5.722;2023-04-06T00:46:22;99475.91;;;7.69;49.99
62548;BME280;48602;45.192;5.722;2023-04-06T00:48:48;99474.22;;;7.65;49.83
62548;BME280;48602;45.192;5.722;2023-04-06T00:51:13;99473.44;;;7.61;49.95
62548;BME280;48602;45.192;5.722;2023-04-06T00:53:39;99474.38;;;7.59;50.14
62548;BME280;48602;45.192;5.722;2023-04-06T00:56:05;99473.50;;;7.58;50.43
62548;BME280;48602;45.192;5.722;2023-04-06T00:58:31;99472.66;;;7.56;50.54
62548;BME280;48602;45.192;5.722;2023-04-06T01:00:57;99465.78;;;7.52;50.75
62548;BME280;48602;45.192;5.722;2023-04-06T01:03:23;99463.25;;;7.48;50.99
62548;BME280;48602;45.192;5.722;2023-04-06T01:05:48;99472.06;;;7.45;50.92
62548;BME280;48602;45.192;5.722;2023-04-06T01:08:14;99469.53;;;7.41;51.86
62548;BME280;48602;45.192;5.722;2023-04-06T01:10:39;99467.03;;;7.36;51.71
62548;BME280;48602;45.192;5.722;2023-04-06T01:13:05;99460.03;;;7.35;51.68
62548;BME280;48602;45.192;5.722;2023-04-06T01:15:32;99461.88;;;7.31;51.17
62548;BME280;48602;45.192;5.722;2023-04-06T01:17:58;99462.78;;;7.29;50.88
62548;BME280;48602;45.192;5.722;2023-04-06T01:20:24;99464.59;;;7.25;50.85
62548;BME280;48602;45.192;5.722;2023-04-06T01:22:49;99461.16;;;7.23;50.75
62548;BME280;48602;45.192;5.722;2023-04-06T01:25:15;99458.69;;;7.17;50.28
62548;BME280;48602;45.192;5.722;2023-04-06T01:27:40;99457.03;;;7.12;49.79
62548;BME280;48602;45.192;5.722;2023-04-06T01:30:06;99463.19;;;7.09;49.99
62548;BME280;48602;45.192;5.722;2023-04-06T01:32:32;99465.88;;;7.06;51.09
62548;BME280;48602;45.192;5.722;2023-04-06T01:34:58;99466.84;;;7.02;51.15
62548;BME280;48602;45.192;5.722;2023-04-06T01:37:23;99464.25;;;7.00;50.67
62548;BME280;48602;45.192;5.722;2023-04-06T01:39:49;99466.06;;;6.98;50.89
62548;BME280;48602;45.192;5.722;2023-04-06T01:42:15;99465.22;;;6.96;50.56
62548;BME280;48602;45.192;5.722;2023-04-06T01:44:41;99467.03;;;6.93;51.06
62548;BME280;48602;45.192;5.722;2023-04-06T01:47:06;99464.47;;;6.90;50.88
62548;BME280;48602;45.192;5.722;2023-04-06T01:49:32;99464.50;;;6.88;51.16
62548;BME280;48602;45.192;5.722;2023-04-06T01:51:57;99455.84;;;6.85;52.22
62548;BME280;48602;45.192;5.722;2023-04-06T01:54:22;99462.84;;;6.84;52.51
62548;BME280;48602;45.192;5.722;2023-04-06T01:56:48;99461.16;;;6.82;52.68
62548;BME280;48602;45.192;5.722;2023-04-06T01:59:15;99458.56;;;6.79;52.52
62548;BME280;48602;45.192;5.722;2023-04-06T02:01:41;99462.94;;;6.80;52.91
62548;BME280;48602;45.192;5.722;2023-04-06T02:04:06;99470.91;;;6.74;53.91
62548;BME280;48602;45.192;5.722;2023-04-06T02:06:31;99467.59;;;6.64;53.31
62548;BME280;48602;45.192;5.722;2023-04-06T02:08:57;99473.94;;;6.52;53.46
62548;BME280;48602;45.192;5.722;2023-04-06T02:11:22;99476.66;;;6.46;53.18
62548;BME280;48602;45.192;5.722;2023-04-06T02:13:48;99480.28;;;6.38;53.78
62548;BME280;48602;45.192;5.722;2023-04-06T02:16:13;99478.63;;;6.34;53.33
62548;BME280;48602;45.192;5.722;2023-04-06T02:18:39;99477.00;;;6.26;53.17
62548;BME280;48602;45.192;5.722;2023-04-06T02:21:05;99471.03;;;6.20;53.59
62548;BME280;48602;45.192;5.722;2023-04-06T02:23:30;99473.75;;;6.12;54.80
62548;BME280;48602;45.192;5.722;2023-04-06T02:25:56;99465.97;;;6.08;54.04
62548;BME280;48602;45.192;5.722;2023-04-06T02:28:21;99460.84;;;6.02;54.31
62548;BME280;48602;45.192;5.722;2023-04-06T02:30:46;99473.13;;;5.98;53.71
62548;BME280;48602;45.192;5.722;2023-04-06T02:33:12;99470.53;;;5.97;53.72
62548;BME280;48602;45.192;5.722;2023-04-06T02:35:37;99470.53;;;5.95;53.79
62548;BME280;48602;45.192;5.722;2023-04-06T02:38:03;99474.03;;;5.95;53.80
62548;BME280;48602;45.192;5.722;2023-04-06T02:40:28;99470.53;;;5.97;54.18
62548;BME280;48602;45.192;5.722;2023-04-06T02:42:53;99467.06;;;5.94;53.98
62548;BME280;48602;45.192;5.722;2023-04-06T02:45:19;99467.91;;;5.95;53.89
62548;BME280;48602;45.192;5.722;2023-04-06T02:47:45;99474.03;;;5.95;53.79
62548;BME280;48602;45.192;5.722;2023-04-06T02:50:10;99465.28;;;5.97;54.13
62548;BME280;48602;45.192;5.722;2023-04-06T02:52:36;99470.50;;;5.98;54.05
62548;BME280;48602;45.192;5.722;2023-04-06T02:55:01;99473.97;;;6.00;54.21
62548;BME280;48602;45.192;5.722;2023-04-06T02:57:27;99472.22;;;5.99;53.75
62548;BME280;48602;45.192;5.722;2023-04-06T02:59:52;99478.31;;;6.01;53.80
62548;BME280;48602;45.192;5.722;2023-04-06T03:02:18;99470.47;;;6.00;53.66
62548;BME280;48602;45.192;5.722;2023-04-06T03:04:44;99467.84;;;6.00;53.38
62548;BME280;48602;45.192;5.722;2023-04-06T03:07:09;99471.38;;;5.97;53.69
62548;BME280;48602;45.192;5.722;2023-04-06T03:09:36;99475.75;;;5.97;53.89
62548;BME280;48602;45.192;5.722;2023-04-06T03:12:02;99474.88;;;5.96;53.66
62548;BME280;48602;45.192;5.722;2023-04-06T03:14:28;99473.19;;;5.93;53.80
62548;BME280;48602;45.192;5.722;2023-04-06T03:16:53;99477.53;;;5.94;53.86
62548;BME280;48602;45.192;5.722;2023-04-06T03:19:18;99481.03;;;5.93;54.58
62548;BME280;48602;45.192;5.722;2023-04-06T03:21:44;99479.28;;;5.92;54.55
62548;BME280;48602;45.192;5.722;2023-04-06T03:24:09;99482.78;;;5.91;55.20
62548;BME280;48602;45.192;5.722;2023-04-06T03:26:35;99489.78;;;5.91;55.30
62548;BME280;48602;45.192;5.722;2023-04-06T03:29:00;99479.34;;;5.89;56.16
62548;BME280;48602;45.192;5.722;2023-04-06T03:31:26;99481.94;;;5.88;56.43
62548;BME280;48602;45.192;5.722;2023-04-06T03:33:52;99482.88;;;5.85;56.29
62548;BME280;48602;45.192;5.722;2023-04-06T03:36:17;99486.38;;;5.84;56.39
62548;BME280;48602;45.192;5.722;2023-04-06T03:38:43;99482.00;;;5.85;56.43
62548;BME280;48602;45.192;5.722;2023-04-06T03:41:08;99482.91;;;5.82;56.09
62548;BME280;48602;45.192;5.722;2023-04-06T03:43:33;99479.44;;;5.82;56.49
62548;BME280;48602;45.192;5.722;2023-04-06T03:45:59;99485.56;;;5.81;56.87
62548;BME280;48602;45.192;5.722;2023-04-06T03:48:25;99484.72;;;5.77;56.56
62548;BME280;48602;45.192;5.722;2023-04-06T03:50:50;99483.88;;;5.77;56.71
62548;BME280;48602;45.192;5.722;2023-04-06T03:53:15;99482.16;;;5.74;56.65
62548;BME280;48602;45.192;5.722;2023-04-06T03:55:41;99484.78;;;5.74;56.60
62548;BME280;48602;45.192;5.722;2023-04-06T03:58:06;99489.13;;;5.74;56.50
62548;BME280;48602;45.192;5.722;2023-04-06T04:00:31;99490.88;;;5.73;56.65
62548;BME280;48602;45.192;5.722;2023-04-06T04:02:58;99495.25;;;5.73;56.43
62548;BME280;48602;45.192;5.722;2023-04-06T04:05:23;99496.97;;;5.74;56.23
62548;BME280;48602;45.192;5.722;2023-04-06T04:07:51;99502.22;;;5.74;56.05
62548;BME280;48602;45.192;5.722;2023-04-06T04:10:17;99505.72;;;5.73;56.01
62548;BME280;48602;45.192;5.722;2023-04-06T04:12:42;99503.09;;;5.73;55.73
62548;BME280;48602;45.192;5.722;2023-04-06T04:15:08;99508.34;;;5.73;55.73
62548;BME280;48602;45.192;5.722;2023-04-06T04:17:33;99517.94;;;5.72;55.63
62548;BME280;48602;45.192;5.722;2023-04-06T04:19:59;99524.06;;;5.71;55.79
62548;BME280;48602;45.192;5.722;2023-04-06T04:22:24;99517.06;;;5.72;55.70
62548;BME280;48602;45.192;5.722;2023-04-06T04:24:49;99520.56;;;5.71;56.32
62548;BME280;48602;45.192;5.722;2023-04-06T04:27:15;99515.41;;;5.68;55.97
62548;BME280;48602;45.192;5.722;2023-04-06T04:29:40;99515.44;;;5.65;56.29
62548;BME280;48602;45.192;5.722;2023-04-06T04:32:06;99522.44;;;5.64;57.28
62548;BME280;48602;45.192;5.722;2023-04-06T04:34:31;99525.06;;;5.63;57.86
62548;BME280;48602;45.192;5.722;2023-04-06T04:36:57;99531.19;;;5.60;58.04
62548;BME280;48602;45.192;5.722;2023-04-06T04:39:23;99530.31;;;5.61;58.19
62548;BME280;48602;45.192;5.722;2023-04-06T04:41:48;99524.22;;;5.60;57.81
62548;BME280;48602;45.192;5.722;2023-04-06T04:44:14;99532.94;;;5.59;56.71
62548;BME280;48602;45.192;5.722;2023-04-06T04:46:40;99534.69;;;5.59;56.12
62548;BME280;48602;45.192;5.722;2023-04-06T04:49:06;99539.06;;;5.58;56.06
62548;BME280;48602;45.192;5.722;2023-04-06T04:51:32;99539.94;;;5.56;55.85
62548;BME280;48602;45.192;5.722;2023-04-06T04:53:58;99546.13;;;5.52;56.13
62548;BME280;48602;45.192;5.722;2023-04-06T04:56:23;99540.03;;;5.51;55.71
62548;BME280;48602;45.192;5.722;2023-04-06T04:58:49;99536.56;;;5.49;56.01
62548;BME280;48602;45.192;5.722;2023-04-06T05:01:14;99549.66;;;5.48;55.88
62548;BME280;48602;45.192;5.722;2023-04-06T05:03:40;99547.94;;;5.45;55.85
62548;BME280;48602;45.192;5.722;2023-04-06T05:06:05;99553.22;;;5.42;55.90
62548;BME280;48602;45.192;5.722;2023-04-06T05:08:31;99549.75;;;5.39;56.03
62548;BME280;48602;45.192;5.722;2023-04-06T05:10:57;99555.88;;;5.38;56.26
62548;BME280;48602;45.192;5.722;2023-04-06T05:13:22;99553.31;;;5.36;56.28
62548;BME280;48602;45.192;5.722;2023-04-06T05:15:48;99553.34;;;5.32;55.91
62548;BME280;48602;45.192;5.722;2023-04-06T05:18:13;99565.56;;;5.30;55.87
62548;BME280;48602;45.192;5.722;2023-04-06T05:20:39;99566.44;;;5.30;56.27
62548;BME280;48602;45.192;5.722;2023-04-06T05:23:04;99571.66;;;5.32;56.27
62548;BME280;48602;45.192;5.722;2023-04-06T05:25:30;99568.16;;;5.34;56.19
62548;BME280;48602;45.192;5.722;2023-04-06T05:27:56;99570.75;;;5.34;56.11
62548;BME280;48602;45.192;5.722;2023-04-06T05:30:21;99572.50;;;5.35;56.45
62548;BME280;48602;45.192;5.722;2023-04-06T05:32:47;99575.91;;;5.39;56.27
62548;BME280;48602;45.192;5.722;2023-04-06T05:35:13;99575.00;;;5.41;56.37
62548;BME280;48602;45.192;5.722;2023-04-06T05:37:39;99571.47;;;5.45;56.47
62548;BME280;48602;45.192;5.722;2023-04-06T05:40:05;99573.19;;;5.49;56.39
62548;BME280;48602;45.192;5.722;2023-04-06T05:42:41;99574.84;;;5.53;56.23
62548;BME280;48602;45.192;5.722;2023-04-06T05:45:08;99578.28;;;5.58;56.24
62548;BME280;48602;45.192;5.722;2023-04-06T05:47:34;99580.88;;;5.60;56.39
62548;BME280;48602;45.192;5.722;2023-04-06T05:50:00;99580.84;;;5.65;56.36
62548;BME280;48602;45.192;5.722;2023-04-06T05:52:25;99581.69;;;5.67;56.07
62548;BME280;48602;45.192;5.722;2023-04-06T05:54:51;99582.47;;;5.70;55.99
62548;BME280;48602;45.192;5.722;2023-04-06T05:57:17;99582.44;;;5.73;56.26
62548;BME280;48602;45.192;5.722;2023-04-06T05:59:43;99582.41;;;5.76;55.98
62548;BME280;48602;45.192;5.722;2023-04-06T06:02:09;99581.47;;;5.82;56.17
62548;BME280;48602;45.192;5.722;2023-04-06T06:04:34;99584.91;;;5.85;55.93
62548;BME280;48602;45.192;5.722;2023-04-06T06:07:00;99586.59;;;5.88;56.00
62548;BME280;48602;45.192;5.722;2023-04-06T06:09:26;99583.09;;;5.92;55.97
62548;BME280;48602;45.192;5.722;2023-04-06T06:11:51;99586.53;;;5.97;55.90
62548;BME280;48602;45.192;5.722;2023-04-06T06:14:17;99584.75;;;6.01;56.07
62548;BME280;48602;45.192;5.722;2023-04-06T06:16:42;99589.88;;;6.05;55.82
62548;BME280;48602;45.192;5.722;2023-04-06T06:19:07;99582.88;;;6.07;55.87
62548;BME280;48602;45.192;5.722;2023-04-06T06:21:33;99581.09;;;6.11;56.02
62548;BME280;48602;45.192;5.722;2023-04-06T06:23:58;99574.91;;;6.16;56.18
62548;BME280;48602;45.192;5.722;2023-04-06T06:26:24;99579.19;;;6.20;56.05
62548;BME280;48602;45.192;5.722;2023-04-06T06:28:49;99582.59;;;6.25;55.73
62548;BME280;48602;45.192;5.722;2023-04-06T06:31:15;99579.91;;;6.32;55.66
62548;BME280;48602;45.192;5.722;2023-04-06T06:33:41;99584.97;;;6.41;55.81
62548;BME280;48602;45.192;5.722;2023-04-06T06:36:07;99573.50;;;6.49;55.72
62548;BME280;48602;45.192;5.722;2023-04-06T06:38:32;99581.22;;;6.57;55.50
62548;BME280;48602;45.192;5.722;2023-04-06T06:40:57;99576.81;;;6.60;55.42
62548;BME280;48602;45.192;5.722;2023-04-06T06:43:23;99567.13;;;6.65;55.25
62548;BME280;48602;45.192;5.722;2023-04-06T06:45:49;99571.38;;;6.71;55.16
62548;BME280;48602;45.192;5.722;2023-04-06T06:48:14;99573.00;;;6.78;55.15
62548;BME280;48602;45.192;5.722;2023-04-06T06:50:40;99571.16;;;6.85;54.93
62548;BME280;48602;45.192;5.722;2023-04-06T06:53:06;99567.53;;;6.90;54.84
62548;BME280;48602;45.192;5.722;2023-04-06T06:55:31;99569.19;;;6.96;54.29
62548;BME280;48602;45.192;5.722;2023-04-06T06:57:57;99563.81;;;7.04;54.31
62548;BME280;48602;45.192;5.722;2023-04-06T07:00:22;99571.47;;;7.14;54.50
62548;BME280;48602;45.192;5.722;2023-04-06T07:02:48;99569.47;;;7.27;54.27
62548;BME280;48602;45.192;5.722;2023-04-06T07:05:15;99564.00;;;7.38;53.76
62548;BME280;48602;45.192;5.722;2023-04-06T07:07:40;99565.63;;;7.45;53.78
62548;BME280;48602;45.192;5.722;2023-04-06T07:10:07;99565.38;;;7.55;53.58
62548;BME280;48602;45.192;5.722;2023-04-06T07:12:33;99566.97;;;7.64;53.60
62548;BME280;48602;45.192;5.722;2023-04-06T07:14:58;99560.63;;;7.74;53.39
62548;BME280;48602;45.192;5.722;2023-04-06T07:17:24;99563.91;;;7.84;53.09
62548;BME280;48602;45.192;5.722;2023-04-06T07:19:52;99560.22;;;7.92;52.90
62548;BME280;48602;45.192;5.722;2023-04-06T07:22:17;99556.56;;;7.99;52.70
62548;BME280;48602;45.192;5.722;2023-04-06T07:24:43;99562.50;;;8.07;52.37
62548;BME280;48602;45.192;5.722;2023-04-06T07:27:08;99553.53;;;8.18;52.23
62548;BME280;48602;45.192;5.722;2023-04-06T07:29:34;99549.75;;;8.28;51.88
62548;BME280;48602;45.192;5.722;2023-04-06T07:31:59;99556.50;;;8.39;52.13
62548;BME280;48602;45.192;5.722;2023-04-06T07:34:25;99540.56;;;8.47;52.02
62548;BME280;48602;45.192;5.722;2023-04-06T07:36:50;99546.41;;;8.58;51.53
62548;BME280;48602;45.192;5.722;2023-04-06T07:39:17;99541.84;;;8.66;51.37
62548;BME280;48602;45.192;5.722;2023-04-06T07:41:43;99546.84;;;8.75;50.95
62548;BME280;48602;45.192;5.722;2023-04-06T07:44:08;99543.16;;;8.83;50.94
62548;BME280;48602;45.192;5.722;2023-04-06T07:46:34;99541.19;;;8.91;50.76
62548;BME280;48602;45.192;5.722;2023-04-06T07:49:00;99556.69;;;9.01;50.86
62548;BME280;48602;45.192;5.722;2023-04-06T07:51:26;99551.19;;;9.09;50.75
62548;BME280;48602;45.192;5.722;2023-04-06T07:53:52;99551.84;;;9.19;50.51
62548;BME280;48602;45.192;5.722;2023-04-06T07:56:17;99553.41;;;9.24;50.45
62548;BME280;48602;45.192;5.722;2023-04-06T07:58:43;99557.59;;;9.31;50.37
62548;BME280;48602;45.192;5.722;2023-04-06T08:01:08;99548.72;;;9.35;49.96
62548;BME280;48602;45.192;5.722;2023-04-06T08:03:34;99550.31;;;9.41;49.43
62548;BME280;48602;45.192;5.722;2023-04-06T08:06:00;99550.31;;;9.41;49.79
62548;BME280;48602;45.192;5.722;2023-04-06T08:08:26;99551.03;;;9.46;49.70
62548;BME280;48602;45.192;5.722;2023-04-06T08:10:52;99548.47;;;9.44;49.09
62548;BME280;48602;45.192;5.722;2023-04-06T08:13:17;99551.09;;;9.44;49.08
62548;BME280;48602;45.192;5.722;2023-04-06T08:15:42;99546.59;;;9.48;49.14
62548;BME280;48602;45.192;5.722;2023-04-06T08:18:08;99545.69;;;9.49;49.13
62548;BME280;48602;45.192;5.722;2023-04-06T08:20:34;99547.31;;;9.55;48.95
62548;BME280;48602;45.192;5.722;2023-04-06T08:23:00;99549.84;;;9.56;48.78
62548;BME280;48602;45.192;5.722;2023-04-06T08:25:25;99552.31;;;9.62;48.98
62548;BME280;48602;45.192;5.722;2023-04-06T08:27:51;99546.06;;;9.66;48.89
62548;BME280;48602;45.192;5.722;2023-04-06T08:30:17;99551.09;;;9.74;48.72
62548;BME280;48602;45.192;5.722;2023-04-06T08:32:47;99550.91;;;9.80;48.19
62548;BME280;48602;45.192;5.722;2023-04-06T08:35:12;99544.63;;;9.86;48.18
62548;BME280;48602;45.192;5.722;2023-04-06T08:37:38;99540.94;;;9.90;47.80
62548;BME280;48602;45.192;5.722;2023-04-06T08:40:04;99547.81;;;9.95;47.91
62548;BME280;48602;45.192;5.722;2023-04-06T08:42:32;99546.78;;;10.01;48.03
62548;BME280;48602;45.192;5.722;2023-04-06T08:44:59;99549.09;;;10.10;47.80
62548;BME280;48602;45.192;5.722;2023-04-06T08:47:25;99541.97;;;10.13;47.33
62548;BME280;48602;45.192;5.722;2023-04-06T08:49:51;99544.47;;;10.18;46.80
62548;BME280;48602;45.192;5.722;2023-04-06T08:52:18;99547.78;;;10.25;46.68
62548;BME280;48602;45.192;5.722;2023-04-06T08:54:44;99548.44;;;10.33;46.74
62548;BME280;48602;45.192;5.722;2023-04-06T08:57:09;99545.59;;;10.39;46.19
62548;BME280;48602;45.192;5.722;2023-04-06T08:59:36;99540.09;;;10.45;46.55
62548;BME280;48602;45.192;5.722;2023-04-06T09:02:04;99540.00;;;10.48;46.52
62548;BME280;48602;45.192;5.722;2023-04-06T09:04:32;99538.09;;;10.53;46.40
62548;BME280;48602;45.192;5.722;2023-04-06T09:06:58;99537.06;;;10.57;46.30
62548;BME280;48602;45.192;5.722;2023-04-06T09:09:23;99536.00;;;10.63;45.82
62548;BME280;48602;45.192;5.722;2023-04-06T09:11:51;99531.44;;;10.68;45.64
62548;BME280;48602;45.192;5.722;2023-04-06T09:14:17;99533.84;;;10.74;45.46
62548;BME280;48602;45.192;5.722;2023-04-06T09:16:57;99525.75;;;10.80;44.93
62548;BME280;48602;45.192;5.722;2023-04-06T09:19:23;99534.31;;;10.87;45.08
62548;BME280;48602;45.192;5.722;2023-04-06T09:21:48;99527.03;;;10.93;45.16
62548;BME280;48602;45.192;5.722;2023-04-06T09:24:14;99519.78;;;11.00;45.05
62548;BME280;48602;45.192;5.722;2023-04-06T09:26:46;99520.41;;;11.06;44.95
62548;BME280;48602;45.192;5.722;2023-04-06T09:29:22;99519.22;;;11.15;44.73
62548;BME280;48602;45.192;5.722;2023-04-06T09:31:48;99520.75;;;11.22;44.96
62548;BME280;48602;45.192;5.722;2023-04-06T09:34:21;99517.00;;;11.28;44.71
62548;BME280;48602;45.192;5.722;2023-04-06T09:36:47;99520.22;;;11.36;44.38
62548;BME280;48602;45.192;5.722;2023-04-06T09:39:13;99512.06;;;11.42;44.42
62548;BME280;48602;45.192;5.722;2023-04-06T09:41:41;99516.38;;;11.44;44.56
62548;BME280;48602;45.192;5.722;2023-04-06T09:44:11;99514.59;;;11.45;44.48
62548;BME280;48602;45.192;5.722;2023-04-06T09:46:44;99512.53;;;11.53;43.91
62548;BME280;48602;45.192;5.722;2023-04-06T09:49:11;99505.22;;;11.60;43.71
62548;BME280;48602;45.192;5.722;2023-04-06T09:51:45;99503.97;;;11.70;43.43
62548;BME280;48602;45.192;5.722;2023-04-06T09:54:11;99501.88;;;11.79;43.82
62548;BME280;48602;45.192;5.722;2023-04-06T09:56:47;99487.50;;;11.86;43.99
62548;BME280;48602;45.192;5.722;2023-04-06T10:02:05;99491.91;;;12.08;43.88
62548;BME280;48602;45.192;5.722;2023-04-06T10:04:37;99492.38;;;12.19;43.54
62548;BME280;48602;45.192;5.722;2023-04-06T10:07:06;99491.97;;;12.28;43.69
62548;BME280;48602;45.192;5.722;2023-04-06T10:09:34;99494.31;;;12.36;42.83
62548;BME280;48602;45.192;5.722;2023-04-06T10:12:05;99486.03;;;12.43;42.63
62548;BME280;48602;45.192;5.722;2023-04-06T10:14:34;99484.00;;;12.50;42.37
62548;BME280;48602;45.192;5.722;2023-04-06T10:17:05;99486.53;;;12.53;41.91
62548;BME280;48602;45.192;5.722;2023-04-06T10:19:44;99483.84;;;12.54;42.42
62548;BME280;48602;45.192;5.722;2023-04-06T10:22:21;99477.53;;;12.57;41.81
62548;BME280;48602;45.192;5.722;2023-04-06T10:24:49;99485.28;;;12.62;41.19
62548;BME280;48602;45.192;5.722;2023-04-06T10:27:15;99479.84;;;12.65;41.41
62548;BME280;48602;45.192;5.722;2023-04-06T10:29:45;99479.84;;;12.65;41.07
62548;BME280;48602;45.192;5.722;2023-04-06T10:32:12;99477.34;;;12.62;41.10
62548;BME280;48602;45.192;5.722;2023-04-06T10:34:37;99478.19;;;12.62;40.95
62548;BME280;48602;45.192;5.722;2023-04-06T10:37:16;99474.63;;;12.63;40.82
62548;BME280;48602;45.192;5.722;2023-04-06T10:39:53;99475.38;;;12.67;40.79
62548;BME280;48602;45.192;5.722;2023-04-06T10:42:36;99477.88;;;12.70;39.99
62548;BME280;48602;45.192;5.722;2023-04-06T10:45:06;99469.03;;;12.71;40.29
62548;BME280;48602;45.192;5.722;2023-04-06T10:47:39;99466.94;;;12.77;40.64
62548;BME280;48602;45.192;5.722;2023-04-06T10:50:05;99465.72;;;12.86;38.98
62548;BME280;48602;45.192;5.722;2023-04-06T10:52:31;99467.31;;;12.90;40.03
62548;BME280;48602;45.192;5.722;2023-04-06T10:54:56;99467.19;;;12.91;39.34
62548;BME280;48602;45.192;5.722;2023-04-06T10:57:29;99461.59;;;12.99;38.12
62548;BME280;48602;45.192;5.722;2023-04-06T10:59:56;99475.56;;;13.03;38.25
62548;BME280;48602;45.192;5.722;2023-04-06T11:02:21;99471.91;;;13.05;37.95
62548;BME280;48602;45.192;5.722;2023-04-06T11:04:57;99449.72;;;13.08;38.70
62548;BME280;48602;45.192;5.722;2023-04-06T11:07:26;99453.03;;;13.13;38.54
62548;BME280;48602;45.192;5.722;2023-04-06T11:09:53;99452.09;;;13.14;38.31
62548;BME280;48602;45.192;5.722;2023-04-06T11:12:26;99444.66;;;13.23;37.89
62548;BME280;48602;45.192;5.722;2023-04-06T11:15:03;99441.56;;;13.33;37.12
62548;BME280;48602;45.192;5.722;2023-04-06T11:17:33;99444.69;;;13.41;37.19
62548;BME280;48602;45.192;5.722;2023-04-06T11:19:58;99427.88;;;13.42;37.70
62548;BME280;48602;45.192;5.722;2023-04-06T11:22:25;99452.16;;;13.51;36.83
62548;BME280;48602;45.192;5.722;2023-04-06T11:24:51;99431.69;;;13.55;36.73
62548;BME280;48602;45.192;5.722;2023-04-06T11:27:18;99430.53;;;13.60;37.84
62548;BME280;48602;45.192;5.722;2023-04-06T11:29:44;99437.81;;;13.74;37.10
62548;BME280;48602;45.192;5.722;2023-04-06T11:32:20;99415.31;;;13.83;36.81
62548;BME280;48602;45.192;5.722;2023-04-06T11:34:47;99427.25;;;13.91;35.91
62548;BME280;48602;45.192;5.722;2023-04-06T11:37:13;99433.84;;;14.02;35.64
62548;BME280;48602;45.192;5.722;2023-04-06T11:39:42;99429.25;;;14.05;35.38
62548;BME280;48602;45.192;5.722;2023-04-06T11:42:08;99442.19;;;14.11;36.86
62548;BME280;48602;45.192;5.722;2023-04-06T11:44:39;99412.88;;;14.14;35.55
62548;BME280;48602;45.192;5.722;2023-04-06T11:47:09;99404.78;;;14.17;35.70
62548;BME280;48602;45.192;5.722;2023-04-06T11:49:40;99400.19;;;14.21;36.84
62548;BME280;48602;45.192;5.722;2023-04-06T11:52:24;99402.50;;;14.27;35.63
62548;BME280;48602;45.192;5.722;2023-04-06T11:54:52;99393.53;;;14.29;34.96
62548;BME280;48602;45.192;5.722;2023-04-06T11:57:19;99394.31;;;14.31;35.08
62548;BME280;48602;45.192;5.722;2023-04-06T11:59:46;99391.38;;;14.38;34.99
62548;BME280;48602;45.192;5.722;2023-04-06T12:02:11;99402.38;;;14.47;35.65
62548;BME280;48602;45.192;5.722;2023-04-06T12:04:37;99393.84;;;14.58;34.84
62548;BME280;48602;45.192;5.722;2023-04-06T12:07:03;99384.44;;;14.70;34.68
62548;BME280;48602;45.192;5.722;2023-04-06T12:09:29;99376.66;;;14.82;34.23
62548;BME280;48602;45.192;5.722;2023-04-06T12:11:55;99378.81;;;14.91;34.29
62548;BME280;48602;45.192;5.722;2023-04-06T12:14:21;99378.56;;;14.96;34.29
62548;BME280;48602;45.192;5.722;2023-04-06T12:16:47;99369.50;;;15.00;34.16
62548;BME280;48602;45.192;5.722;2023-04-06T12:19:12;99382.63;;;15.03;33.70
62548;BME280;48602;45.192;5.722;2023-04-06T12:21:38;99392.72;;;15.12;32.90
62548;BME280;48602;45.192;5.722;2023-04-06T12:24:04;99378.19;;;15.19;33.40
62548;BME280;48602;45.192;5.722;2023-04-06T12:26:30;99387.53;;;15.26;33.49
62548;BME280;48602;45.192;5.722;2023-04-06T12:28:56;99377.84;;;15.25;33.05
62548;BME280;48602;45.192;5.722;2023-04-06T12:31:22;99354.53;;;15.30;32.39
62548;BME280;48602;45.192;5.722;2023-04-06T12:33:51;99371.59;;;15.26;33.26
62548;BME280;48602;45.192;5.722;2023-04-06T12:36:19;99368.59;;;15.32;33.18
62548;BME280;48602;45.192;5.722;2023-04-06T12:38:47;99365.25;;;15.45;31.87
62548;BME280;48602;45.192;5.722;2023-04-06T12:41:12;99392.25;;;15.53;29.56
62548;BME280;48602;45.192;5.722;2023-04-06T12:43:42;99367.75;;;15.63;30.67
62548;BME280;48602;45.192;5.722;2023-04-06T12:46:08;99361.16;;;15.70;29.46
62548;BME280;48602;45.192;5.722;2023-04-06T12:48:33;99353.69;;;15.77;28.38
62548;BME280;48602;45.192;5.722;2023-04-06T12:51:01;99390.81;;;15.79;29.52
62548;BME280;48602;45.192;5.722;2023-04-06T12:53:27;99381.72;;;15.83;28.40
62548;BME280;48602;45.192;5.722;2023-04-06T12:55:56;99347.06;;;15.84;29.52
62548;BME280;48602;45.192;5.722;2023-04-06T12:58:23;99369.03;;;15.88;28.25
62548;BME280;48602;45.192;5.722;2023-04-06T13:00:49;99348.53;;;15.90;28.34
62548;BME280;48602;45.192;5.722;2023-04-06T13:03:16;99366.00;;;15.94;28.47
62548;BME280;48602;45.192;5.722;2023-04-06T13:05:47;99353.56;;;15.94;27.70